This is the latest recevied weather packets stored in our database for station/object KN6DHD. If no packets are shown the sender has not sent any weather packets the latest 10 day(s).
| Time | Temp. | Humidity | Pressure | Rain* | Wind** | Luminosity | Snow |
|---|---|---|---|---|---|---|---|
| 1778026356 | 18.33° C | 74% | 1015.5 hPa | 0 mm | - | 98 W/m² | - |
| 1778026052 | 18.89° C | 74% | 1015.4 hPa | 0 mm | - | 104 W/m² | - |
| 1778025750 | 18.89° C | 74% | 1015.5 hPa | 0 mm | - | 104 W/m² | - |
| 1778025447 | 18.89° C | 74% | 1015.4 hPa | 0 mm | - | 114 W/m² | - |
| 1778025145 | 18.89° C | 74% | 1015.6 hPa | 0 mm | - | 115 W/m² | - |
| 1778024841 | 18.89° C | 74% | 1015.5 hPa | 0 mm | - | 119 W/m² | - |
| 1778024539 | 18.89° C | 74% | 1015.5 hPa | 0 mm | - | 129 W/m² | - |
| 1778024235 | 18.33° C | 74% | 1015.2 hPa | 0 mm | - | 134 W/m² | - |
| 1778023933 | 18.89° C | 74% | 1015.4 hPa | 0 mm | - | 137 W/m² | - |
| 1778023630 | 18.89° C | 74% | 1015.5 hPa | 0 mm | - | 131 W/m² | - |
| 1778023327 | 18.89° C | 73% | 1015.3 hPa | 0 mm | - | 137 W/m² | - |
| 1778023024 | 18.89° C | 75% | 1015.5 hPa | 0 mm | - | 144 W/m² | - |
| 1778022723 | 18.89° C | 73% | 1015.5 hPa | 0 mm | - | 149 W/m² | - |
| 1778022421 | 18.89° C | 73% | 1015.5 hPa | 0 mm | - | 145 W/m² | - |
| 1778022117 | 18.89° C | 74% | 1015.4 hPa | 0 mm | - | 116 W/m² | - |
| 1778021813 | 18.89° C | 74% | 1015.6 hPa | 0 mm | - | 108 W/m² | - |
| 1778021510 | 18.89° C | 73% | 1015.4 hPa | 0 mm | - | 148 W/m² | - |
| 1778021206 | 20° C | 71% | 1015.6 hPa | 0 mm | - | 425 W/m² | - |
| 1778020904 | 18.89° C | 74% | 1015.6 hPa | 0 mm | - | 188 W/m² | - |
| 1778020601 | 19.44° C | 72% | 1015.6 hPa | 0 mm | - | 174 W/m² | - |
| 1778020297 | 20° C | 72% | 1015.6 hPa | 0 mm | - | 149 W/m² | - |
| 1778019993 | 19.44° C | 72% | 1015.9 hPa | 0 mm | - | 592 W/m² | - |
| 1778019690 | 19.44° C | 71% | 1015.7 hPa | 0 mm | - | 315 W/m² | - |
| 1778019387 | 18.89° C | 73% | 1015.9 hPa | 0 mm | - | 232 W/m² | - |
| 1778019083 | 19.44° C | 70% | 1016 hPa | 0 mm | - | 229 W/m² | - |
* Rain latest hour (hover to see other rain measurements)
** Current wind speed in m/s (hover to see current wind gust speed)